Time;durP1;ratioP1;P1;durP2;ratioP2;P2;SDS_P1;SDS_P2;PMS_P1;PMS_P2;Temp;Humidity;BMP_temperature;BMP_pressure;BME280_temperature;BME280_humidity;BME280_pressure;Samples;Min_cycle;Max_cycle;Signal;HPM_P1;HPM_P2
2022/09/11 00:00:54;;;;;;;;;;;20.80;49.80;;;;;;452995;262;1339;-51
2022/09/11 00:02:55;;;;;;;;;;;20.80;49.80;;;;;;452598;263;1042;-52
2022/09/11 00:04:56;;;;;;;;;;;20.80;49.80;;;;;;452318;263;1100;-52
2022/09/11 00:06:58;;;;;;;;;;;20.80;49.80;;;;;;453132;263;1306;-51
2022/09/11 00:08:59;;;;;;;;;;;20.80;49.90;;;;;;452697;263;2691;-51
2022/09/11 00:11:00;;;;;;;;;;;20.80;49.80;;;;;;452745;263;1203;-52
2022/09/11 00:13:02;;;;;;;;;;;20.80;49.90;;;;;;453136;262;1143;-51
2022/09/11 00:15:03;;;;;;;;;;;20.80;49.80;;;;;;453028;263;1276;-51
2022/09/11 00:17:04;;;;;;;;;;;20.80;49.80;;;;;;452759;263;1379;-51
2022/09/11 00:19:06;;;;;;;;;;;20.80;49.80;;;;;;453048;263;1344;-51
2022/09/11 00:21:07;;;;;;;;;;;20.80;49.90;;;;;;452727;263;1358;-52
2022/09/11 00:23:08;;;;;;;;;;;20.80;49.80;;;;;;452996;263;1340;-51
2022/09/11 00:25:10;;;;;;;;;;;20.80;49.80;;;;;;453080;263;1305;-52
2022/09/11 00:27:11;;;;;;;;;;;20.80;49.80;;;;;;453113;263;1304;-51
2022/09/11 00:29:12;;;;;;;;;;;20.80;49.80;;;;;;452851;263;2158;-51
2022/09/11 00:31:14;;;;;;;;;;;20.80;49.90;;;;;;452704;263;1323;-52
2022/09/11 00:33:15;;;;;;;;;;;20.80;49.90;;;;;;452717;262;1260;-51
2022/09/11 00:35:16;;;;;;;;;;;20.80;49.80;;;;;;453080;263;1291;-52
2022/09/11 00:37:18;;;;;;;;;;;20.80;49.80;;;;;;453114;262;1339;-51
2022/09/11 00:39:20;;;;;;;;;;;20.80;49.90;;;;;;453081;263;1294;-51
2022/09/11 00:41:20;;;;;;;;;;;20.80;49.80;;;;;;452589;263;2448;-52
2022/09/11 00:43:22;;;;;;;;;;;20.80;49.80;;;;;;452954;263;1292;-52
2022/09/11 00:45:24;;;;;;;;;;;20.80;49.90;;;;;;452818;263;1319;-51
2022/09/11 00:47:24;;;;;;;;;;;20.80;49.90;;;;;;452652;263;2320;-52
2022/09/11 00:49:26;;;;;;;;;;;20.80;49.80;;;;;;453076;263;2173;-51
2022/09/11 00:51:27;;;;;;;;;;;20.80;49.80;;;;;;453083;263;1443;-51
2022/09/11 00:53:29;;;;;;;;;;;20.80;49.90;;;;;;452693;263;1228;-52
2022/09/11 00:55:31;;;;;;;;;;;20.80;49.90;;;;;;453058;263;1360;-51
2022/09/11 00:57:32;;;;;;;;;;;20.80;49.90;;;;;;452881;263;1272;-51
2022/09/11 00:59:33;;;;;;;;;;;20.80;49.80;;;;;;453058;262;1324;-51
2022/09/11 01:01:36;;;;;;;;;;;20.80;49.80;;;;;;452872;263;1401;-52
2022/09/11 01:03:36;;;;;;;;;;;20.80;49.80;;;;;;452647;263;2314;-52
2022/09/11 01:05:38;;;;;;;;;;;20.80;49.90;;;;;;452792;262;1319;-52
2022/09/11 01:07:39;;;;;;;;;;;20.80;49.80;;;;;;452670;263;1280;-51
2022/09/11 01:09:40;;;;;;;;;;;20.80;49.90;;;;;;453052;263;2158;-52
2022/09/11 01:11:41;;;;;;;;;;;20.80;49.90;;;;;;452694;263;1371;-52
2022/09/11 01:13:43;;;;;;;;;;;20.80;49.90;;;;;;453100;263;1295;-51
2022/09/11 01:15:44;;;;;;;;;;;20.80;49.90;;;;;;452904;263;1258;-51
2022/09/11 01:17:45;;;;;;;;;;;20.80;49.90;;;;;;452785;263;1366;-51
2022/09/11 01:19:47;;;;;;;;;;;20.80;49.90;;;;;;453106;262;1311;-52
2022/09/11 01:21:51;;;;;;;;;;;20.80;49.90;;;;;;452944;263;1316;-51
2022/09/11 01:23:49;;;;;;;;;;;20.90;49.90;;;;;;452939;262;2293;-51
2022/09/11 01:25:51;;;;;;;;;;;20.80;49.80;;;;;;453015;263;1322;-51
2022/09/11 01:27:52;;;;;;;;;;;20.80;49.90;;;;;;453067;263;1296;-51
2022/09/11 01:29:54;;;;;;;;;;;20.80;49.90;;;;;;453080;263;2173;-52
2022/09/11 01:31:55;;;;;;;;;;;20.80;49.90;;;;;;452664;263;1389;-51
2022/09/11 01:33:56;;;;;;;;;;;20.80;49.90;;;;;;452707;263;1447;-51
2022/09/11 01:35:57;;;;;;;;;;;20.80;49.90;;;;;;452657;263;1378;-52
2022/09/11 01:37:59;;;;;;;;;;;20.80;49.90;;;;;;452682;263;1262;-51
2022/09/11 01:40:00;;;;;;;;;;;20.80;49.90;;;;;;453070;263;1355;-51
2022/09/11 01:42:01;;;;;;;;;;;20.80;49.90;;;;;;453076;263;1377;-51
2022/09/11 01:44:03;;;;;;;;;;;20.80;50.00;;;;;;452992;263;1324;-51
2022/09/11 01:46:05;;;;;;;;;;;20.80;49.90;;;;;;452962;263;1293;-51
2022/09/11 01:48:05;;;;;;;;;;;20.80;49.90;;;;;;452739;263;2106;-52
2022/09/11 01:50:07;;;;;;;;;;;20.80;50.00;;;;;;452976;263;2181;-51
2022/09/11 01:52:08;;;;;;;;;;;20.80;49.90;;;;;;452927;263;1414;-52
2022/09/11 01:54:10;;;;;;;;;;;20.80;49.90;;;;;;452614;263;1248;-51
2022/09/11 01:56:12;;;;;;;;;;;20.80;49.90;;;;;;453009;263;1352;-51
2022/09/11 01:58:14;;;;;;;;;;;20.80;49.90;;;;;;452717;262;1268;-51
2022/09/11 02:00:14;;;;;;;;;;;20.80;49.90;;;;;;452740;263;2202;-51
2022/09/11 02:02:16;;;;;;;;;;;20.80;49.90;;;;;;453019;263;1261;-51
2022/09/11 02:04:17;;;;;;;;;;;20.80;50.00;;;;;;453033;263;1297;-52
2022/09/11 02:06:18;;;;;;;;;;;20.80;50.00;;;;;;453049;263;1320;-51
2022/09/11 02:08:20;;;;;;;;;;;20.80;50.00;;;;;;452752;262;1498;-52
2022/09/11 02:10:21;;;;;;;;;;;20.80;50.00;;;;;;453053;263;2177;-52
2022/09/11 02:12:22;;;;;;;;;;;20.80;50.00;;;;;;452961;263;1324;-51
2022/09/11 02:14:24;;;;;;;;;;;20.80;50.00;;;;;;453117;262;1261;-52
2022/09/11 02:16:25;;;;;;;;;;;20.80;50.00;;;;;;453088;263;1341;-52
2022/09/11 02:18:26;;;;;;;;;;;20.80;50.00;;;;;;452833;263;1333;-51
2022/09/11 02:20:28;;;;;;;;;;;20.80;50.00;;;;;;453047;263;1364;-51
2022/09/11 02:22:29;;;;;;;;;;;20.80;50.00;;;;;;452497;263;1263;-52
2022/09/11 02:24:30;;;;;;;;;;;20.80;50.00;;;;;;453090;262;1298;-50
2022/09/11 02:26:32;;;;;;;;;;;20.80;50.00;;;;;;452879;263;1365;-51
2022/09/11 02:28:33;;;;;;;;;;;20.80;50.00;;;;;;452637;263;1438;-51
2022/09/11 02:30:34;;;;;;;;;;;20.80;50.10;;;;;;452672;262;2209;-52
2022/09/11 02:32:36;;;;;;;;;;;20.80;50.00;;;;;;452774;262;1290;-51
2022/09/11 02:34:37;;;;;;;;;;;20.80;50.00;;;;;;452862;263;1332;-51
2022/09/11 02:36:39;;;;;;;;;;;20.80;50.00;;;;;;452693;263;1358;-51
2022/09/11 02:38:40;;;;;;;;;;;20.80;50.00;;;;;;453083;262;1409;-51
2022/09/11 02:40:42;;;;;;;;;;;20.80;50.00;;;;;;452655;263;1362;-52
2022/09/11 02:42:42;;;;;;;;;;;20.80;50.00;;;;;;452589;263;2523;-51
2022/09/11 02:44:44;;;;;;;;;;;20.80;50.00;;;;;;453091;263;1378;-52
2022/09/11 02:46:45;;;;;;;;;;;20.80;50.00;;;;;;453111;262;1339;-51
2022/09/11 02:48:46;;;;;;;;;;;20.80;50.00;;;;;;452842;263;1361;-51
2022/09/11 02:50:48;;;;;;;;;;;20.80;50.00;;;;;;452891;263;2158;-52
2022/09/11 02:52:49;;;;;;;;;;;20.80;50.00;;;;;;452690;263;1518;-51
2022/09/11 02:54:50;;;;;;;;;;;20.80;50.00;;;;;;453082;263;1326;-51
2022/09/11 02:56:52;;;;;;;;;;;20.80;50.00;;;;;;453068;263;1270;-51
2022/09/11 02:58:54;;;;;;;;;;;20.80;50.00;;;;;;453081;263;1249;-51
2022/09/11 03:00:55;;;;;;;;;;;20.80;50.10;;;;;;452770;263;1280;-51
2022/09/11 03:02:57;;;;;;;;;;;20.80;50.10;;;;;;452659;263;1326;-52
2022/09/11 03:04:58;;;;;;;;;;;20.80;50.10;;;;;;452675;263;1268;-51
2022/09/11 03:06:59;;;;;;;;;;;20.80;50.00;;;;;;452997;263;1403;-51
2022/09/11 03:09:01;;;;;;;;;;;20.80;50.10;;;;;;453083;262;1350;-52
2022/09/11 03:11:02;;;;;;;;;;;20.80;50.10;;;;;;453063;263;2217;-51
2022/09/11 03:13:03;;;;;;;;;;;20.80;50.10;;;;;;452690;263;1440;-51
2022/09/11 03:15:05;;;;;;;;;;;20.80;50.10;;;;;;453002;263;1267;-52
2022/09/11 03:17:06;;;;;;;;;;;20.80;50.10;;;;;;453031;263;1263;-51
2022/09/11 03:19:08;;;;;;;;;;;20.80;50.00;;;;;;452875;263;1317;-52
2022/09/11 03:21:10;;;;;;;;;;;20.80;50.00;;;;;;452677;263;1329;-51
2022/09/11 03:23:11;;;;;;;;;;;20.80;50.10;;;;;;452667;263;1437;-51
2022/09/11 03:25:14;;;;;;;;;;;20.80;50.10;;;;;;452648;263;1648;-52
2022/09/11 03:27:14;;;;;;;;;;;20.80;50.10;;;;;;452980;263;2409;-51
2022/09/11 03:29:15;;;;;;;;;;;20.80;50.10;;;;;;452586;263;2208;-51
2022/09/11 03:31:17;;;;;;;;;;;20.80;50.10;;;;;;452845;263;1249;-52
2022/09/11 03:33:18;;;;;;;;;;;20.80;50.10;;;;;;452635;263;1267;-50
2022/09/11 03:35:20;;;;;;;;;;;20.80;50.10;;;;;;452699;263;1473;-51
2022/09/11 03:37:21;;;;;;;;;;;20.80;50.10;;;;;;453041;263;1324;-51
2022/09/11 03:39:23;;;;;;;;;;;20.80;50.10;;;;;;452576;263;1343;-51
2022/09/11 03:41:25;;;;;;;;;;;20.80;50.10;;;;;;452730;263;1424;-52
2022/09/11 03:43:25;;;;;;;;;;;20.80;50.10;;;;;;452942;263;2383;-51
2022/09/11 03:45:26;;;;;;;;;;;20.80;50.10;;;;;;452890;263;1378;-52
2022/09/11 03:47:28;;;;;;;;;;;20.80;50.10;;;;;;452656;263;1414;-51
2022/09/11 03:49:29;;;;;;;;;;;20.80;50.00;;;;;;452737;262;2213;-51
2022/09/11 03:51:31;;;;;;;;;;;20.80;50.10;;;;;;452494;263;1343;-50
2022/09/11 03:53:32;;;;;;;;;;;20.80;50.10;;;;;;452744;263;1327;-51
2022/09/11 03:55:33;;;;;;;;;;;20.80;50.10;;;;;;453055;263;1280;-51
2022/09/11 03:57:35;;;;;;;;;;;20.80;50.10;;;;;;452886;263;1304;-51
2022/09/11 03:59:37;;;;;;;;;;;20.80;50.10;;;;;;452664;262;1464;-51
2022/09/11 04:01:37;;;;;;;;;;;20.80;50.10;;;;;;452597;263;2348;-52
2022/09/11 04:03:38;;;;;;;;;;;20.80;50.10;;;;;;452648;262;1349;-51
2022/09/11 04:05:40;;;;;;;;;;;20.80;50.10;;;;;;452718;262;1273;-51
2022/09/11 04:07:41;;;;;;;;;;;20.80;50.10;;;;;;453028;263;1382;-51
2022/09/11 04:09:42;;;;;;;;;;;20.80;50.10;;;;;;452793;263;2174;-51
2022/09/11 04:11:44;;;;;;;;;;;20.80;50.10;;;;;;452609;263;1271;-52
2022/09/11 04:13:45;;;;;;;;;;;20.80;50.10;;;;;;453071;262;1444;-51
2022/09/11 04:15:47;;;;;;;;;;;20.80;50.10;;;;;;453044;263;1279;-51
2022/09/11 04:17:48;;;;;;;;;;;20.80;50.10;;;;;;452664;263;1348;-52
2022/09/11 04:19:50;;;;;;;;;;;20.80;50.10;;;;;;452962;263;1299;-51
2022/09/11 04:21:51;;;;;;;;;;;20.80;50.20;;;;;;453035;263;1282;-51
2022/09/11 04:23:53;;;;;;;;;;;20.80;50.20;;;;;;453080;262;1340;-51
2022/09/11 04:25:54;;;;;;;;;;;20.80;50.20;;;;;;452959;263;1443;-51
2022/09/11 04:27:55;;;;;;;;;;;20.80;50.10;;;;;;453059;263;1295;-52
2022/09/11 04:29:56;;;;;;;;;;;20.80;50.10;;;;;;453083;263;2178;-51
2022/09/11 04:31:58;;;;;;;;;;;20.80;50.10;;;;;;452676;263;1239;-52
2022/09/11 04:33:59;;;;;;;;;;;20.80;50.10;;;;;;452528;263;1261;-52
2022/09/11 04:36:00;;;;;;;;;;;20.80;50.10;;;;;;452529;263;1372;-51
2022/09/11 04:38:02;;;;;;;;;;;20.70;50.10;;;;;;453046;263;1255;-52
2022/09/11 04:40:03;;;;;;;;;;;20.70;50.10;;;;;;452619;263;1289;-51
2022/09/11 04:42:04;;;;;;;;;;;20.70;50.10;;;;;;452556;263;1336;-52
2022/09/11 04:44:06;;;;;;;;;;;20.80;50.20;;;;;;453063;263;1252;-52
2022/09/11 04:46:07;;;;;;;;;;;20.80;50.20;;;;;;452878;263;1262;-51
2022/09/11 04:48:08;;;;;;;;;;;20.80;50.20;;;;;;452893;263;1357;-51
2022/09/11 04:50:10;;;;;;;;;;;20.80;50.10;;;;;;452986;263;2177;-51
2022/09/11 04:52:11;;;;;;;;;;;20.70;50.10;;;;;;452667;263;1261;-52
2022/09/11 04:54:12;;;;;;;;;;;20.80;50.20;;;;;;452683;262;1268;-52
2022/09/11 04:56:14;;;;;;;;;;;20.80;50.10;;;;;;452686;263;1245;-52
2022/09/11 04:58:15;;;;;;;;;;;20.80;50.20;;;;;;453078;263;1238;-51
2022/09/11 05:00:16;;;;;;;;;;;20.70;50.20;;;;;;453090;263;1287;-51
2022/09/11 05:02:18;;;;;;;;;;;20.80;50.20;;;;;;453016;263;1434;-52
2022/09/11 05:04:19;;;;;;;;;;;20.80;50.20;;;;;;453005;263;2416;-51
2022/09/11 05:06:21;;;;;;;;;;;20.70;50.20;;;;;;452782;263;1362;-51
2022/09/11 05:08:22;;;;;;;;;;;20.80;50.20;;;;;;453024;263;2418;-51
2022/09/11 05:10:24;;;;;;;;;;;20.80;50.20;;;;;;453009;263;2181;-52
2022/09/11 05:12:24;;;;;;;;;;;20.70;50.10;;;;;;452635;263;2224;-51
2022/09/11 05:14:27;;;;;;;;;;;20.80;50.20;;;;;;453105;262;1325;-52
2022/09/11 05:16:27;;;;;;;;;;;20.70;50.10;;;;;;453007;263;2071;-51
2022/09/11 05:18:28;;;;;;;;;;;20.80;50.20;;;;;;453040;263;1303;-51
2022/09/11 05:20:30;;;;;;;;;;;20.70;50.20;;;;;;452663;263;1330;-51
2022/09/11 05:22:31;;;;;;;;;;;20.80;50.20;;;;;;453043;263;1318;-51
2022/09/11 05:24:32;;;;;;;;;;;20.70;50.20;;;;;;453051;263;1305;-51
2022/09/11 05:26:34;;;;;;;;;;;20.70;50.20;;;;;;452700;263;1396;-51
2022/09/11 05:28:35;;;;;;;;;;;20.70;50.20;;;;;;452826;262;1383;-52
2022/09/11 05:30:36;;;;;;;;;;;20.80;50.20;;;;;;453032;263;2186;-52
2022/09/11 05:32:38;;;;;;;;;;;20.80;50.20;;;;;;453048;263;1475;-51
2022/09/11 05:34:39;;;;;;;;;;;20.80;50.20;;;;;;453099;263;1298;-52
2022/09/11 05:36:41;;;;;;;;;;;20.80;50.20;;;;;;452877;263;1363;-51
2022/09/11 05:38:42;;;;;;;;;;;20.70;50.20;;;;;;452936;263;1316;-52
2022/09/11 05:40:43;;;;;;;;;;;20.80;50.20;;;;;;453049;263;1350;-51
2022/09/11 05:42:45;;;;;;;;;;;20.80;50.20;;;;;;452710;263;1267;-51
2022/09/11 05:44:46;;;;;;;;;;;20.80;50.20;;;;;;453112;263;1347;-52
2022/09/11 05:46:48;;;;;;;;;;;20.80;50.10;;;;;;453061;263;1414;-52
2022/09/11 05:48:49;;;;;;;;;;;20.70;50.10;;;;;;453110;263;1146;-50
2022/09/11 05:50:50;;;;;;;;;;;20.80;50.20;;;;;;452712;263;2225;-52
2022/09/11 05:52:52;;;;;;;;;;;20.80;50.20;;;;;;452780;262;1291;-51
2022/09/11 05:54:53;;;;;;;;;;;20.80;50.20;;;;;;453139;262;1387;-51
2022/09/11 05:56:54;;;;;;;;;;;20.80;50.20;;;;;;453052;263;1259;-52
2022/09/11 05:58:56;;;;;;;;;;;20.80;50.20;;;;;;453057;263;1419;-52
2022/09/11 06:00:57;;;;;;;;;;;20.80;50.20;;;;;;452738;263;2321;-52
2022/09/11 06:02:58;;;;;;;;;;;20.80;50.20;;;;;;452577;263;1250;-51
2022/09/11 06:05:00;;;;;;;;;;;20.80;50.20;;;;;;453146;262;1405;-51
2022/09/11 06:07:01;;;;;;;;;;;20.70;50.20;;;;;;452866;263;1345;-52
2022/09/11 06:09:02;;;;;;;;;;;20.80;50.30;;;;;;453000;263;1285;-51
2022/09/11 06:11:06;;;;;;;;;;;20.70;50.20;;;;;;452999;263;2218;-51
2022/09/11 06:13:06;;;;;;;;;;;20.70;50.20;;;;;;452866;263;2228;-51
2022/09/11 06:15:06;;;;;;;;;;;20.80;50.30;;;;;;452719;263;2156;-51
2022/09/11 06:17:08;;;;;;;;;;;20.80;50.20;;;;;;452723;262;1388;-52
2022/09/11 06:19:09;;;;;;;;;;;20.80;50.30;;;;;;452456;263;1428;-52
2022/09/11 06:21:10;;;;;;;;;;;20.80;50.20;;;;;;452616;263;1336;-52
2022/09/11 06:23:12;;;;;;;;;;;20.70;50.20;;;;;;452610;263;1327;-52
2022/09/11 06:25:13;;;;;;;;;;;20.80;50.20;;;;;;452999;263;1575;-51
2022/09/11 06:27:14;;;;;;;;;;;20.80;50.20;;;;;;452791;263;1281;-52
2022/09/11 06:29:15;;;;;;;;;;;20.80;50.30;;;;;;452566;263;1390;-52
2022/09/11 06:31:17;;;;;;;;;;;20.80;50.20;;;;;;452980;263;2213;-51
2022/09/11 06:33:19;;;;;;;;;;;20.80;50.20;;;;;;452566;262;1347;-51
2022/09/11 06:35:20;;;;;;;;;;;20.70;50.20;;;;;;452670;263;1367;-52
2022/09/11 06:37:21;;;;;;;;;;;20.70;50.20;;;;;;452701;263;1271;-52
2022/09/11 06:39:23;;;;;;;;;;;20.80;50.20;;;;;;452639;263;1408;-51
2022/09/11 06:41:24;;;;;;;;;;;20.80;50.20;;;;;;452745;263;1262;-51
2022/09/11 06:43:25;;;;;;;;;;;20.80;50.20;;;;;;452530;263;1354;-51
2022/09/11 06:45:29;;;;;;;;;;;20.80;50.30;;;;;;452854;263;1545;-51
2022/09/11 06:47:28;;;;;;;;;;;20.80;50.30;;;;;;452325;263;2769;-51
2022/09/11 06:49:29;;;;;;;;;;;20.80;50.30;;;;;;452513;263;1376;-52
2022/09/11 06:51:31;;;;;;;;;;;20.80;50.20;;;;;;452891;263;2209;-52
2022/09/11 06:53:32;;;;;;;;;;;20.80;50.30;;;;;;452578;263;1524;-51
2022/09/11 06:55:33;;;;;;;;;;;20.80;50.20;;;;;;452590;263;1256;-52
2022/09/11 06:57:34;;;;;;;;;;;20.80;50.30;;;;;;452910;263;1835;-52
2022/09/11 06:59:36;;;;;;;;;;;20.80;50.30;;;;;;452691;262;1252;-51
2022/09/11 07:01:38;;;;;;;;;;;20.80;50.30;;;;;;453071;263;1327;-51
2022/09/11 07:03:39;;;;;;;;;;;20.80;50.30;;;;;;453001;263;1355;-51
2022/09/11 07:05:41;;;;;;;;;;;20.80;50.30;;;;;;453059;263;1183;-51
2022/09/11 07:07:42;;;;;;;;;;;20.80;50.30;;;;;;452885;263;1208;-51
2022/09/11 07:09:43;;;;;;;;;;;20.70;50.20;;;;;;452965;263;1417;-51
2022/09/11 07:11:45;;;;;;;;;;;20.70;50.20;;;;;;452741;263;2174;-51
2022/09/11 07:13:46;;;;;;;;;;;20.80;50.30;;;;;;452837;263;1605;-52
2022/09/11 07:15:48;;;;;;;;;;;20.80;50.30;;;;;;453023;263;1302;-52
2022/09/11 07:17:49;;;;;;;;;;;20.70;50.20;;;;;;453017;263;1366;-51
2022/09/11 07:19:51;;;;;;;;;;;20.70;50.30;;;;;;452414;263;1431;-51
2022/09/11 07:21:51;;;;;;;;;;;20.70;50.30;;;;;;452723;263;2224;-52
2022/09/11 07:23:53;;;;;;;;;;;20.80;50.30;;;;;;452663;263;1365;-51
2022/09/11 07:25:54;;;;;;;;;;;20.80;50.30;;;;;;452687;263;1282;-51
2022/09/11 07:27:55;;;;;;;;;;;20.80;50.30;;;;;;453054;263;1282;-52
2022/09/11 07:29:57;;;;;;;;;;;20.70;50.20;;;;;;453033;263;1222;-52
2022/09/11 07:31:58;;;;;;;;;;;20.80;50.30;;;;;;452724;263;2169;-51
2022/09/11 07:33:59;;;;;;;;;;;20.80;50.30;;;;;;453018;263;1376;-52
2022/09/11 07:36:01;;;;;;;;;;;20.80;50.30;;;;;;452646;263;1516;-51
2022/09/11 07:38:02;;;;;;;;;;;20.70;50.30;;;;;;452726;263;1237;-51
2022/09/11 07:40:03;;;;;;;;;;;20.70;50.20;;;;;;452626;263;1318;-52
2022/09/11 07:42:06;;;;;;;;;;;20.70;50.30;;;;;;453042;262;1331;-51
2022/09/11 07:44:06;;;;;;;;;;;20.80;50.30;;;;;;452597;263;2230;-51
2022/09/11 07:46:08;;;;;;;;;;;20.80;50.30;;;;;;453036;263;1287;-51
2022/09/11 07:48:09;;;;;;;;;;;20.80;50.30;;;;;;452687;262;1258;-51
2022/09/11 07:50:10;;;;;;;;;;;20.70;50.20;;;;;;453071;262;1318;-52
2022/09/11 07:52:12;;;;;;;;;;;20.80;50.30;;;;;;452607;263;2189;-51
2022/09/11 07:54:13;;;;;;;;;;;20.70;50.30;;;;;;452690;262;1348;-51
2022/09/11 07:56:14;;;;;;;;;;;20.80;50.40;;;;;;453097;262;1210;-51
2022/09/11 07:58:16;;;;;;;;;;;20.70;50.30;;;;;;453011;263;1300;-51
2022/09/11 08:00:17;;;;;;;;;;;20.70;50.30;;;;;;453108;263;1331;-52
2022/09/11 08:02:18;;;;;;;;;;;20.70;50.20;;;;;;452715;263;1351;-52
2022/09/11 08:04:20;;;;;;;;;;;20.80;50.30;;;;;;452741;263;1312;-51
2022/09/11 08:06:22;;;;;;;;;;;20.80;50.40;;;;;;452893;263;1228;-52
2022/09/11 08:08:22;;;;;;;;;;;20.70;50.30;;;;;;452839;263;2291;-51
2022/09/11 08:10:23;;;;;;;;;;;20.70;50.30;;;;;;452661;263;1412;-51
2022/09/11 08:12:25;;;;;;;;;;;20.70;50.30;;;;;;452862;263;2233;-52
2022/09/11 08:14:26;;;;;;;;;;;20.70;50.30;;;;;;452899;263;1311;-51
2022/09/11 08:16:28;;;;;;;;;;;20.70;50.30;;;;;;452626;263;1364;-52
2022/09/11 08:18:29;;;;;;;;;;;20.70;50.30;;;;;;453032;263;1307;-51
2022/09/11 08:20:30;;;;;;;;;;;20.70;50.30;;;;;;453037;263;1330;-52
2022/09/11 08:22:32;;;;;;;;;;;20.70;50.30;;;;;;452653;263;1272;-51
2022/09/11 08:24:33;;;;;;;;;;;20.70;50.30;;;;;;452644;263;1316;-51
2022/09/11 08:26:34;;;;;;;;;;;20.80;50.40;;;;;;453035;263;1268;-51
2022/09/11 08:28:36;;;;;;;;;;;20.80;50.40;;;;;;452886;262;1307;-51
2022/09/11 08:30:37;;;;;;;;;;;20.80;50.40;;;;;;452911;263;1255;-51
2022/09/11 08:32:39;;;;;;;;;;;20.70;50.30;;;;;;452631;262;2233;-50
2022/09/11 08:34:41;;;;;;;;;;;20.80;50.40;;;;;;452780;263;1372;-51
2022/09/11 08:36:42;;;;;;;;;;;20.80;50.40;;;;;;452640;263;1376;-51
2022/09/11 08:38:43;;;;;;;;;;;20.80;50.40;;;;;;452992;262;1311;-51
2022/09/11 08:40:45;;;;;;;;;;;20.80;50.40;;;;;;453027;263;1293;-52
2022/09/11 08:42:46;;;;;;;;;;;20.70;50.30;;;;;;452658;263;1357;-52
2022/09/11 08:44:47;;;;;;;;;;;20.80;50.40;;;;;;452811;263;1416;-52
2022/09/11 08:46:49;;;;;;;;;;;20.80;50.40;;;;;;452857;263;1266;-51
2022/09/11 08:48:50;;;;;;;;;;;20.80;50.40;;;;;;452961;263;1397;-52
2022/09/11 08:50:51;;;;;;;;;;;20.70;50.30;;;;;;452673;263;1247;-51
2022/09/11 08:52:54;;;;;;;;;;;20.80;50.40;;;;;;453122;262;2127;-51
2022/09/11 08:54:55;;;;;;;;;;;20.80;50.40;;;;;;452652;263;1367;-51
2022/09/11 08:56:56;;;;;;;;;;;20.70;50.30;;;;;;453052;263;1260;-51
2022/09/11 08:58:58;;;;;;;;;;;20.80;50.40;;;;;;452671;263;1289;-51
2022/09/11 09:00:59;;;;;;;;;;;20.80;50.40;;;;;;452894;263;1305;-52
2022/09/11 09:03:01;;;;;;;;;;;20.70;50.30;;;;;;453022;263;1264;-51
2022/09/11 09:05:02;;;;;;;;;;;20.70;50.40;;;;;;452921;263;1285;-51
2022/09/11 09:07:03;;;;;;;;;;;20.70;50.40;;;;;;452654;263;2506;-52
2022/09/11 09:09:04;;;;;;;;;;;20.70;50.30;;;;;;452682;263;1784;-51
2022/09/11 09:11:06;;;;;;;;;;;20.70;50.40;;;;;;452927;263;1435;-52
2022/09/11 09:13:07;;;;;;;;;;;20.70;50.40;;;;;;452900;263;2150;-51
2022/09/11 09:15:08;;;;;;;;;;;20.70;50.40;;;;;;453066;263;1338;-51
2022/09/11 09:17:10;;;;;;;;;;;20.70;50.40;;;;;;453030;263;1281;-51
2022/09/11 09:19:13;;;;;;;;;;;20.80;50.50;;;;;;452726;263;1846;-52
2022/09/11 09:21:13;;;;;;;;;;;20.70;50.40;;;;;;452652;263;2213;-52
2022/09/11 09:23:14;;;;;;;;;;;20.70;50.30;;;;;;453089;263;1152;-52
2022/09/11 09:25:15;;;;;;;;;;;20.80;50.50;;;;;;452800;263;1272;-51
2022/09/11 09:27:17;;;;;;;;;;;20.70;50.40;;;;;;453071;263;1366;-51
2022/09/11 09:29:18;;;;;;;;;;;20.70;50.40;;;;;;453011;263;1344;-51
2022/09/11 09:31:20;;;;;;;;;;;20.70;50.40;;;;;;453055;263;1367;-51
2022/09/11 09:33:22;;;;;;;;;;;20.70;50.40;;;;;;453066;263;1399;-51
2022/09/11 09:35:23;;;;;;;;;;;20.70;50.40;;;;;;453112;262;1297;-51
2022/09/11 09:37:25;;;;;;;;;;;20.70;50.40;;;;;;452689;263;1259;-52
2022/09/11 09:39:26;;;;;;;;;;;20.70;50.50;;;;;;452636;263;1288;-52
2022/09/11 09:41:28;;;;;;;;;;;20.70;50.40;;;;;;453080;263;1231;-52
2022/09/11 09:43:29;;;;;;;;;;;20.70;50.40;;;;;;452685;263;1258;-51
2022/09/11 09:45:30;;;;;;;;;;;20.80;50.50;;;;;;453100;263;1236;-51
2022/09/11 09:47:32;;;;;;;;;;;20.70;50.50;;;;;;452723;263;1220;-52
2022/09/11 09:49:33;;;;;;;;;;;20.70;50.50;;;;;;452903;263;1233;-51
2022/09/11 09:51:35;;;;;;;;;;;20.70;50.50;;;;;;452720;263;2229;-52
2022/09/11 09:53:36;;;;;;;;;;;20.80;50.50;;;;;;453105;263;1291;-51
2022/09/11 09:55:37;;;;;;;;;;;20.70;50.40;;;;;;452764;262;1302;-52
2022/09/11 09:57:38;;;;;;;;;;;20.80;50.50;;;;;;452909;263;1306;-52
2022/09/11 09:59:40;;;;;;;;;;;20.70;50.50;;;;;;453070;263;1272;-51
2022/09/11 10:01:42;;;;;;;;;;;20.80;50.50;;;;;;453057;263;1404;-51
2022/09/11 10:03:43;;;;;;;;;;;20.70;50.40;;;;;;453039;263;1265;-51
2022/09/11 10:05:45;;;;;;;;;;;20.70;50.40;;;;;;452904;263;1230;-52
2022/09/11 10:07:46;;;;;;;;;;;20.70;50.50;;;;;;452962;263;1315;-51
2022/09/11 10:09:48;;;;;;;;;;;20.70;50.50;;;;;;452648;263;1214;-51
2022/09/11 10:11:49;;;;;;;;;;;20.70;50.50;;;;;;452438;263;2189;-52
2022/09/11 10:13:50;;;;;;;;;;;20.70;50.50;;;;;;452674;262;1305;-51
2022/09/11 10:15:51;;;;;;;;;;;20.70;50.60;;;;;;452692;263;1289;-51
2022/09/11 10:17:53;;;;;;;;;;;20.70;50.50;;;;;;452924;263;1471;-51
2022/09/11 10:19:55;;;;;;;;;;;20.70;50.60;;;;;;453041;263;1225;-52
2022/09/11 10:21:56;;;;;;;;;;;20.70;50.60;;;;;;452736;263;1375;-51
2022/09/11 10:23:58;;;;;;;;;;;20.70;50.50;;;;;;453005;262;1344;-51
2022/09/11 10:25:59;;;;;;;;;;;20.70;50.50;;;;;;452800;263;1419;-52
2022/09/11 10:28:02;;;;;;;;;;;20.70;50.50;;;;;;453063;263;1333;-51
2022/09/11 10:30:02;;;;;;;;;;;20.70;50.50;;;;;;452855;263;2471;-52
2022/09/11 10:32:04;;;;;;;;;;;20.70;50.60;;;;;;452669;263;2217;-52
2022/09/11 10:34:06;;;;;;;;;;;20.70;50.50;;;;;;453001;263;1289;-51
2022/09/11 10:36:06;;;;;;;;;;;20.70;50.60;;;;;;452771;263;2091;-52
2022/09/11 10:38:08;;;;;;;;;;;20.70;50.60;;;;;;453048;263;1295;-51
2022/09/11 10:40:09;;;;;;;;;;;20.70;50.60;;;;;;452753;262;1539;-52
2022/09/11 10:42:10;;;;;;;;;;;20.70;50.60;;;;;;452640;263;1334;-51
2022/09/11 10:44:11;;;;;;;;;;;20.70;50.60;;;;;;452911;263;1371;-51
2022/09/11 10:46:13;;;;;;;;;;;20.70;50.60;;;;;;452963;262;1284;-51
2022/09/11 10:48:14;;;;;;;;;;;20.70;50.60;;;;;;452886;263;1390;-51
2022/09/11 10:50:16;;;;;;;;;;;20.70;50.60;;;;;;453042;263;1358;-52
2022/09/11 10:52:17;;;;;;;;;;;20.80;50.70;;;;;;452713;263;2181;-52
2022/09/11 10:54:18;;;;;;;;;;;20.70;50.50;;;;;;453042;263;1335;-51
2022/09/11 10:56:20;;;;;;;;;;;20.70;50.60;;;;;;452926;262;1292;-51
2022/09/11 10:58:21;;;;;;;;;;;20.70;50.60;;;;;;453050;263;1325;-52
2022/09/11 11:00:22;;;;;;;;;;;20.70;50.60;;;;;;452627;263;1336;-51
2022/09/11 11:02:24;;;;;;;;;;;20.70;50.60;;;;;;453090;263;1340;-52
2022/09/11 11:04:25;;;;;;;;;;;20.70;50.60;;;;;;453117;263;1382;-52
2022/09/11 11:06:27;;;;;;;;;;;20.70;50.60;;;;;;453100;263;1345;-51
2022/09/11 11:08:28;;;;;;;;;;;20.70;50.60;;;;;;453101;263;2342;-51
2022/09/11 11:10:31;;;;;;;;;;;20.70;50.60;;;;;;453056;262;1881;-51
2022/09/11 11:12:31;;;;;;;;;;;20.70;50.60;;;;;;452640;262;2487;-51
2022/09/11 11:14:32;;;;;;;;;;;20.70;50.60;;;;;;452708;263;1216;-51
2022/09/11 11:16:33;;;;;;;;;;;20.70;50.60;;;;;;453098;263;1217;-51
2022/09/11 11:18:35;;;;;;;;;;;20.70;50.60;;;;;;453000;263;1315;-52
2022/09/11 11:20:36;;;;;;;;;;;20.70;50.60;;;;;;452604;263;1192;-51
2022/09/11 11:22:38;;;;;;;;;;;20.80;50.70;;;;;;452972;262;1405;-52
2022/09/11 11:24:39;;;;;;;;;;;20.70;50.60;;;;;;452773;263;1865;-52
2022/09/11 11:26:41;;;;;;;;;;;20.70;50.60;;;;;;452833;263;1321;-51
2022/09/11 11:28:41;;;;;;;;;;;20.70;50.60;;;;;;452652;262;1602;-51
2022/09/11 11:30:43;;;;;;;;;;;20.70;50.60;;;;;;452686;262;1292;-51
2022/09/11 11:32:45;;;;;;;;;;;20.70;50.60;;;;;;452663;263;2205;-52
2022/09/11 11:34:47;;;;;;;;;;;20.70;50.70;;;;;;452836;263;2215;-51
2022/09/11 11:36:47;;;;;;;;;;;20.70;50.60;;;;;;453025;263;2085;-51
2022/09/11 11:38:49;;;;;;;;;;;20.70;50.70;;;;;;452989;263;1507;-51
2022/09/11 11:40:52;;;;;;;;;;;20.70;50.70;;;;;;453028;263;1778;-52
2022/09/11 11:42:51;;;;;;;;;;;20.70;50.70;;;;;;452630;263;2437;-51
2022/09/11 11:44:53;;;;;;;;;;;20.70;50.70;;;;;;453083;263;1305;-51
2022/09/11 11:46:55;;;;;;;;;;;20.70;50.70;;;;;;452709;263;1251;-51
2022/09/11 11:48:55;;;;;;;;;;;20.70;50.70;;;;;;452691;263;1468;-52
2022/09/11 11:50:57;;;;;;;;;;;20.70;50.70;;;;;;453104;263;1069;-52
2022/09/11 11:52:58;;;;;;;;;;;20.70;50.70;;;;;;452848;262;2178;-52
2022/09/11 11:55:00;;;;;;;;;;;20.70;50.70;;;;;;453089;263;1387;-51
2022/09/11 11:57:01;;;;;;;;;;;20.70;50.70;;;;;;452657;263;1246;-51